sensor_id;sensor_type;location;lat;lon;timestamp;temperature;humidity
9466;DHT22;4771;48.726;9.006;2024-01-11T00:01:22;-1.90;99.90
9466;DHT22;4771;48.726;9.006;2024-01-11T00:03:49;-1.90;99.90
9466;DHT22;4771;48.726;9.006;2024-01-11T00:06:16;-1.90;99.90
9466;DHT22;4771;48.726;9.006;2024-01-11T00:08:44;-1.90;99.90
9466;DHT22;4771;48.726;9.006;2024-01-11T00:11:11;-1.90;99.90
9466;DHT22;4771;48.726;9.006;2024-01-11T00:13:38;-1.90;99.90
9466;DHT22;4771;48.726;9.006;2024-01-11T00:16:05;-1.80;99.90
9466;DHT22;4771;48.726;9.006;2024-01-11T00:18:32;-1.90;99.90
9466;DHT22;4771;48.726;9.006;2024-01-11T00:20:59;-2.00;99.90
9466;DHT22;4771;48.726;9.006;2024-01-11T00:23:26;-2.00;99.90
9466;DHT22;4771;48.726;9.006;2024-01-11T00:25:54;-2.00;99.90
9466;DHT22;4771;48.726;9.006;2024-01-11T00:28:21;-2.00;99.90
9466;DHT22;4771;48.726;9.006;2024-01-11T00:30:48;-2.10;99.90
9466;DHT22;4771;48.726;9.006;2024-01-11T00:33:15;-2.10;99.90
9466;DHT22;4771;48.726;9.006;2024-01-11T00:35:42;-2.00;99.90
9466;DHT22;4771;48.726;9.006;2024-01-11T00:38:09;-2.00;99.90
9466;DHT22;4771;48.726;9.006;2024-01-11T00:40:35;-2.00;99.90
9466;DHT22;4771;48.726;9.006;2024-01-11T00:43:04;-1.90;99.90
9466;DHT22;4771;48.726;9.006;2024-01-11T00:45:31;-1.80;99.90
9466;DHT22;4771;48.726;9.006;2024-01-11T00:47:57;-1.70;99.90
9466;DHT22;4771;48.726;9.006;2024-01-11T00:50:24;-1.60;99.90
9466;DHT22;4771;48.726;9.006;2024-01-11T00:52:51;-1.60;99.90
9466;DHT22;4771;48.726;9.006;2024-01-11T00:55:18;-1.60;99.90
9466;DHT22;4771;48.726;9.006;2024-01-11T00:57:45;-1.70;99.90
9466;DHT22;4771;48.726;9.006;2024-01-11T01:00:14;-1.70;99.90
9466;DHT22;4771;48.726;9.006;2024-01-11T01:02:41;-1.30;99.90
9466;DHT22;4771;48.726;9.006;2024-01-11T01:05:08;-1.80;99.90
9466;DHT22;4771;48.726;9.006;2024-01-11T01:07:35;-1.90;99.90
9466;DHT22;4771;48.726;9.006;2024-01-11T01:10:02;-1.90;99.90
9466;DHT22;4771;48.726;9.006;2024-01-11T01:12:29;-2.00;99.90
9466;DHT22;4771;48.726;9.006;2024-01-11T01:14:56;-2.00;99.90
9466;DHT22;4771;48.726;9.006;2024-01-11T01:17:24;-2.20;99.90
9466;DHT22;4771;48.726;9.006;2024-01-11T01:23:13;-2.20;99.90
9466;DHT22;4771;48.726;9.006;2024-01-11T01:25:40;-2.10;99.90
9466;DHT22;4771;48.726;9.006;2024-01-11T01:28:07;-2.10;99.90
9466;DHT22;4771;48.726;9.006;2024-01-11T01:30:34;-2.10;99.90
9466;DHT22;4771;48.726;9.006;2024-01-11T01:33:02;-2.00;99.90
9466;DHT22;4771;48.726;9.006;2024-01-11T01:35:29;-2.00;99.90
9466;DHT22;4771;48.726;9.006;2024-01-11T01:37:56;-2.00;99.90
9466;DHT22;4771;48.726;9.006;2024-01-11T01:40:23;-1.90;99.90
9466;DHT22;4771;48.726;9.006;2024-01-11T01:42:50;-2.00;99.90
9466;DHT22;4771;48.726;9.006;2024-01-11T01:45:24;-2.00;99.90
9466;DHT22;4771;48.726;9.006;2024-01-11T01:47:51;-2.10;99.90
9466;DHT22;4771;48.726;9.006;2024-01-11T01:50:19;-2.20;99.90
9466;DHT22;4771;48.726;9.006;2024-01-11T01:52:47;-2.20;99.90
9466;DHT22;4771;48.726;9.006;2024-01-11T01:55:15;-2.20;99.90
9466;DHT22;4771;48.726;9.006;2024-01-11T01:57:43;-2.20;99.90
9466;DHT22;4771;48.726;9.006;2024-01-11T02:00:11;-2.20;99.90
9466;DHT22;4771;48.726;9.006;2024-01-11T02:02:40;-2.20;99.90
9466;DHT22;4771;48.726;9.006;2024-01-11T02:05:08;-2.20;99.90
9466;DHT22;4771;48.726;9.006;2024-01-11T02:07:37;-2.30;99.90
9466;DHT22;4771;48.726;9.006;2024-01-11T02:10:05;-2.20;99.90
9466;DHT22;4771;48.726;9.006;2024-01-11T02:12:35;-2.20;99.90
9466;DHT22;4771;48.726;9.006;2024-01-11T02:15:02;-2.10;99.90
9466;DHT22;4771;48.726;9.006;2024-01-11T02:17:30;-2.10;99.90
9466;DHT22;4771;48.726;9.006;2024-01-11T02:19:57;-2.10;99.90
9466;DHT22;4771;48.726;9.006;2024-01-11T02:22:28;-2.20;99.90
9466;DHT22;4771;48.726;9.006;2024-01-11T02:24:57;-2.30;99.90
9466;DHT22;4771;48.726;9.006;2024-01-11T02:27:24;-2.30;99.90
9466;DHT22;4771;48.726;9.006;2024-01-11T02:29:51;-2.50;99.90
9466;DHT22;4771;48.726;9.006;2024-01-11T02:32:18;-2.50;99.90
9466;DHT22;4771;48.726;9.006;2024-01-11T02:34:45;-2.50;99.90
9466;DHT22;4771;48.726;9.006;2024-01-11T02:37:12;-2.40;99.90
9466;DHT22;4771;48.726;9.006;2024-01-11T02:39:40;-2.40;99.90
9466;DHT22;4771;48.726;9.006;2024-01-11T02:42:08;-2.40;99.90
9466;DHT22;4771;48.726;9.006;2024-01-11T02:44:35;-2.30;99.90
9466;DHT22;4771;48.726;9.006;2024-01-11T02:47:02;-2.30;99.90
9466;DHT22;4771;48.726;9.006;2024-01-11T02:49:29;-2.20;99.90
9466;DHT22;4771;48.726;9.006;2024-01-11T02:51:56;-2.20;99.90
9466;DHT22;4771;48.726;9.006;2024-01-11T02:54:23;-2.20;99.90
9466;DHT22;4771;48.726;9.006;2024-01-11T02:56:50;-2.30;99.90
9466;DHT22;4771;48.726;9.006;2024-01-11T02:59:18;-2.20;99.90
9466;DHT22;4771;48.726;9.006;2024-01-11T03:01:45;-2.20;99.90
9466;DHT22;4771;48.726;9.006;2024-01-11T03:04:12;-2.20;99.90
9466;DHT22;4771;48.726;9.006;2024-01-11T03:06:39;-2.30;99.90
9466;DHT22;4771;48.726;9.006;2024-01-11T03:09:06;-2.40;99.90
9466;DHT22;4771;48.726;9.006;2024-01-11T03:11:33;-2.40;99.90
9466;DHT22;4771;48.726;9.006;2024-01-11T03:14:00;-2.40;99.90
9466;DHT22;4771;48.726;9.006;2024-01-11T03:16:29;-2.40;99.90
9466;DHT22;4771;48.726;9.006;2024-01-11T03:18:56;-2.40;99.90
9466;DHT22;4771;48.726;9.006;2024-01-11T03:21:23;-2.50;99.90
9466;DHT22;4771;48.726;9.006;2024-01-11T03:23:50;-2.40;99.90
9466;DHT22;4771;48.726;9.006;2024-01-11T03:26:17;-2.50;99.90
9466;DHT22;4771;48.726;9.006;2024-01-11T03:28:44;-2.40;99.90
9466;DHT22;4771;48.726;9.006;2024-01-11T03:31:11;-2.90;99.90
9466;DHT22;4771;48.726;9.006;2024-01-11T03:33:40;-2.30;99.90
9466;DHT22;4771;48.726;9.006;2024-01-11T03:36:08;-2.30;99.90
9466;DHT22;4771;48.726;9.006;2024-01-11T03:38:35;-2.30;99.90
9466;DHT22;4771;48.726;9.006;2024-01-11T03:41:02;-2.30;99.90
9466;DHT22;4771;48.726;9.006;2024-01-11T03:43:29;-2.40;99.90
9466;DHT22;4771;48.726;9.006;2024-01-11T03:45:56;-2.30;99.90
9466;DHT22;4771;48.726;9.006;2024-01-11T03:48:23;-2.30;99.90
9466;DHT22;4771;48.726;9.006;2024-01-11T03:50:51;-2.40;99.90
9466;DHT22;4771;48.726;9.006;2024-01-11T03:53:18;-2.40;99.90
9466;DHT22;4771;48.726;9.006;2024-01-11T03:55:45;-2.40;99.90
9466;DHT22;4771;48.726;9.006;2024-01-11T03:58:12;-2.40;99.90
9466;DHT22;4771;48.726;9.006;2024-01-11T04:00:39;-2.40;99.90
9466;DHT22;4771;48.726;9.006;2024-01-11T04:03:07;-2.50;99.90
9466;DHT22;4771;48.726;9.006;2024-01-11T04:05:33;-2.50;99.90
9466;DHT22;4771;48.726;9.006;2024-01-11T04:08:05;-2.40;99.90
9466;DHT22;4771;48.726;9.006;2024-01-11T04:10:32;-2.50;99.90
9466;DHT22;4771;48.726;9.006;2024-01-11T04:12:59;-2.50;99.90
9466;DHT22;4771;48.726;9.006;2024-01-11T04:15:26;-2.50;99.90
9466;DHT22;4771;48.726;9.006;2024-01-11T04:17:52;-2.50;99.90
9466;DHT22;4771;48.726;9.006;2024-01-11T04:20:19;-2.50;99.90
9466;DHT22;4771;48.726;9.006;2024-01-11T04:22:46;-2.60;99.90
9466;DHT22;4771;48.726;9.006;2024-01-11T04:25:14;-2.50;99.90
9466;DHT22;4771;48.726;9.006;2024-01-11T04:27:41;-2.50;99.90
9466;DHT22;4771;48.726;9.006;2024-01-11T04:30:09;-2.60;99.90
9466;DHT22;4771;48.726;9.006;2024-01-11T04:32:36;-2.60;99.90
9466;DHT22;4771;48.726;9.006;2024-01-11T04:35:03;-2.70;99.90
9466;DHT22;4771;48.726;9.006;2024-01-11T04:37:30;-2.70;99.90
9466;DHT22;4771;48.726;9.006;2024-01-11T04:39:57;-2.80;99.90
9466;DHT22;4771;48.726;9.006;2024-01-11T04:42:27;-2.80;99.90
9466;DHT22;4771;48.726;9.006;2024-01-11T04:44:54;-2.70;99.90
9466;DHT22;4771;48.726;9.006;2024-01-11T04:47:21;-2.70;99.90
9466;DHT22;4771;48.726;9.006;2024-01-11T04:49:48;-2.70;99.90
9466;DHT22;4771;48.726;9.006;2024-01-11T04:52:15;-2.70;99.90
9466;DHT22;4771;48.726;9.006;2024-01-11T04:54:42;-2.80;99.90
9466;DHT22;4771;48.726;9.006;2024-01-11T04:57:09;-2.70;99.90
9466;DHT22;4771;48.726;9.006;2024-01-11T04:59:37;-2.70;99.90
9466;DHT22;4771;48.726;9.006;2024-01-11T05:02:04;-2.80;99.90
9466;DHT22;4771;48.726;9.006;2024-01-11T05:04:31;-2.80;99.90
9466;DHT22;4771;48.726;9.006;2024-01-11T05:06:58;-2.90;99.90
9466;DHT22;4771;48.726;9.006;2024-01-11T05:09:25;-2.90;99.90
9466;DHT22;4771;48.726;9.006;2024-01-11T05:11:52;-2.90;99.90
9466;DHT22;4771;48.726;9.006;2024-01-11T05:14:18;-2.90;99.90
9466;DHT22;4771;48.726;9.006;2024-01-11T05:16:47;-3.00;99.90
9466;DHT22;4771;48.726;9.006;2024-01-11T05:19:13;-3.00;99.90
9466;DHT22;4771;48.726;9.006;2024-01-11T05:21:40;-3.00;99.90
9466;DHT22;4771;48.726;9.006;2024-01-11T05:24:07;-2.90;99.90
9466;DHT22;4771;48.726;9.006;2024-01-11T05:26:34;-2.80;99.90
9466;DHT22;4771;48.726;9.006;2024-01-11T05:29:01;-2.80;99.90
9466;DHT22;4771;48.726;9.006;2024-01-11T05:31:29;-2.70;99.90
9466;DHT22;4771;48.726;9.006;2024-01-11T05:33:58;-2.70;99.90
9466;DHT22;4771;48.726;9.006;2024-01-11T05:36:24;-2.60;99.90
9466;DHT22;4771;48.726;9.006;2024-01-11T05:38:51;-2.50;99.90
9466;DHT22;4771;48.726;9.006;2024-01-11T05:41:18;-2.40;99.90
9466;DHT22;4771;48.726;9.006;2024-01-11T05:43:45;-2.40;99.90
9466;DHT22;4771;48.726;9.006;2024-01-11T05:46:12;-2.40;99.90
9466;DHT22;4771;48.726;9.006;2024-01-11T05:48:39;-2.40;99.90
9466;DHT22;4771;48.726;9.006;2024-01-11T05:51:08;-2.50;99.90
9466;DHT22;4771;48.726;9.006;2024-01-11T05:53:35;-2.50;99.90
9466;DHT22;4771;48.726;9.006;2024-01-11T05:56:02;-2.50;99.90
9466;DHT22;4771;48.726;9.006;2024-01-11T05:58:29;-2.50;99.90
9466;DHT22;4771;48.726;9.006;2024-01-11T06:00:56;-2.50;99.90
9466;DHT22;4771;48.726;9.006;2024-01-11T06:03:23;-2.50;99.90
9466;DHT22;4771;48.726;9.006;2024-01-11T06:05:50;-2.60;99.90
9466;DHT22;4771;48.726;9.006;2024-01-11T06:08:18;-2.70;99.90
9466;DHT22;4771;48.726;9.006;2024-01-11T06:10:45;-2.70;99.90
9466;DHT22;4771;48.726;9.006;2024-01-11T06:13:12;-2.80;99.90
9466;DHT22;4771;48.726;9.006;2024-01-11T06:15:39;-3.40;99.90
9466;DHT22;4771;48.726;9.006;2024-01-11T06:18:06;-2.90;99.90
9466;DHT22;4771;48.726;9.006;2024-01-11T06:20:33;-3.00;99.90
9466;DHT22;4771;48.726;9.006;2024-01-11T06:23:00;-3.10;99.90
9466;DHT22;4771;48.726;9.006;2024-01-11T06:25:28;-3.10;99.90
9466;DHT22;4771;48.726;9.006;2024-01-11T06:27:55;-3.20;99.90
9466;DHT22;4771;48.726;9.006;2024-01-11T06:30:22;-3.10;99.90
9466;DHT22;4771;48.726;9.006;2024-01-11T06:32:49;-3.20;99.90
9466;DHT22;4771;48.726;9.006;2024-01-11T06:35:15;-3.20;99.90
9466;DHT22;4771;48.726;9.006;2024-01-11T06:37:43;-3.30;99.90
9466;DHT22;4771;48.726;9.006;2024-01-11T06:40:10;-3.20;99.90
9466;DHT22;4771;48.726;9.006;2024-01-11T06:42:39;-3.20;99.90
9466;DHT22;4771;48.726;9.006;2024-01-11T06:45:06;-3.10;99.90
9466;DHT22;4771;48.726;9.006;2024-01-11T06:47:33;-3.00;99.90
9466;DHT22;4771;48.726;9.006;2024-01-11T06:50:01;-2.90;99.90
9466;DHT22;4771;48.726;9.006;2024-01-11T06:52:28;-2.80;99.90
9466;DHT22;4771;48.726;9.006;2024-01-11T06:54:55;-2.80;99.90
9466;DHT22;4771;48.726;9.006;2024-01-11T06:57:22;-2.80;99.90
9466;DHT22;4771;48.726;9.006;2024-01-11T06:59:51;-2.80;99.90
9466;DHT22;4771;48.726;9.006;2024-01-11T07:02:18;-2.90;99.90
9466;DHT22;4771;48.726;9.006;2024-01-11T07:04:45;-3.70;99.90
9466;DHT22;4771;48.726;9.006;2024-01-11T07:07:12;-2.80;99.90
9466;DHT22;4771;48.726;9.006;2024-01-11T07:09:39;-2.80;99.90
9466;DHT22;4771;48.726;9.006;2024-01-11T07:12:06;-2.70;99.90
9466;DHT22;4771;48.726;9.006;2024-01-11T07:14:33;-2.60;99.90
9466;DHT22;4771;48.726;9.006;2024-01-11T07:17:01;-2.70;99.90
9466;DHT22;4771;48.726;9.006;2024-01-11T07:19:29;-2.70;99.90
9466;DHT22;4771;48.726;9.006;2024-01-11T07:21:56;-2.80;99.90
9466;DHT22;4771;48.726;9.006;2024-01-11T07:24:23;-2.70;99.90
9466;DHT22;4771;48.726;9.006;2024-01-11T07:26:50;-2.80;99.90
9466;DHT22;4771;48.726;9.006;2024-01-11T07:29:17;-2.80;99.90
9466;DHT22;4771;48.726;9.006;2024-01-11T07:31:44;-2.80;99.90
9466;DHT22;4771;48.726;9.006;2024-01-11T07:34:12;-2.80;99.90
9466;DHT22;4771;48.726;9.006;2024-01-11T07:36:39;-2.80;99.90
9466;DHT22;4771;48.726;9.006;2024-01-11T07:39:06;-2.80;99.90
9466;DHT22;4771;48.726;9.006;2024-01-11T07:41:33;-2.80;99.90
9466;DHT22;4771;48.726;9.006;2024-01-11T07:44:00;-2.70;99.90
9466;DHT22;4771;48.726;9.006;2024-01-11T07:46:27;-2.70;99.90
9466;DHT22;4771;48.726;9.006;2024-01-11T07:48:54;-2.70;99.90
9466;DHT22;4771;48.726;9.006;2024-01-11T07:51:22;-2.70;99.90
9466;DHT22;4771;48.726;9.006;2024-01-11T07:53:49;-2.70;99.90
9466;DHT22;4771;48.726;9.006;2024-01-11T07:56:15;-2.60;99.90
9466;DHT22;4771;48.726;9.006;2024-01-11T07:58:42;-2.50;99.90
9466;DHT22;4771;48.726;9.006;2024-01-11T08:01:09;-2.40;99.90
9466;DHT22;4771;48.726;9.006;2024-01-11T08:03:38;-2.30;99.90
9466;DHT22;4771;48.726;9.006;2024-01-11T08:06:07;-2.20;99.90
9466;DHT22;4771;48.726;9.006;2024-01-11T08:08:37;-2.20;99.90
9466;DHT22;4771;48.726;9.006;2024-01-11T08:11:04;-2.30;99.90
9466;DHT22;4771;48.726;9.006;2024-01-11T08:13:31;-2.30;99.90
9466;DHT22;4771;48.726;9.006;2024-01-11T08:16:00;-2.20;99.90
9466;DHT22;4771;48.726;9.006;2024-01-11T08:18:29;-2.20;99.90
9466;DHT22;4771;48.726;9.006;2024-01-11T08:20:56;-2.30;99.90
9466;DHT22;4771;48.726;9.006;2024-01-11T08:23:23;-2.30;99.90
9466;DHT22;4771;48.726;9.006;2024-01-11T08:25:51;-2.30;99.90
9466;DHT22;4771;48.726;9.006;2024-01-11T08:28:18;-2.30;99.90
9466;DHT22;4771;48.726;9.006;2024-01-11T08:30:46;-2.30;99.90
9466;DHT22;4771;48.726;9.006;2024-01-11T08:33:12;-2.20;99.90
9466;DHT22;4771;48.726;9.006;2024-01-11T08:35:39;-2.10;99.90
9466;DHT22;4771;48.726;9.006;2024-01-11T08:38:07;-2.00;99.90
9466;DHT22;4771;48.726;9.006;2024-01-11T08:40:34;-2.00;99.90
9466;DHT22;4771;48.726;9.006;2024-01-11T08:43:03;-1.80;99.90
9466;DHT22;4771;48.726;9.006;2024-01-11T08:45:30;-1.70;99.90
9466;DHT22;4771;48.726;9.006;2024-01-11T08:47:56;-1.60;99.90
9466;DHT22;4771;48.726;9.006;2024-01-11T08:50:24;-1.50;99.90
9466;DHT22;4771;48.726;9.006;2024-01-11T08:52:50;-1.40;99.90
9466;DHT22;4771;48.726;9.006;2024-01-11T08:55:18;-1.40;99.90
9466;DHT22;4771;48.726;9.006;2024-01-11T08:57:45;-1.30;99.90
9466;DHT22;4771;48.726;9.006;2024-01-11T09:00:14;-1.20;99.90
9466;DHT22;4771;48.726;9.006;2024-01-11T09:02:43;-1.10;99.90
9466;DHT22;4771;48.726;9.006;2024-01-11T09:05:10;-1.10;99.90
9466;DHT22;4771;48.726;9.006;2024-01-11T09:07:36;-1.00;99.90
9466;DHT22;4771;48.726;9.006;2024-01-11T09:10:04;-0.90;99.90
9466;DHT22;4771;48.726;9.006;2024-01-11T09:12:31;-0.90;99.90
9466;DHT22;4771;48.726;9.006;2024-01-11T09:14:59;-0.90;99.90
9466;DHT22;4771;48.726;9.006;2024-01-11T09:17:27;-0.80;99.90
9466;DHT22;4771;48.726;9.006;2024-01-11T09:19:54;-0.80;99.90
9466;DHT22;4771;48.726;9.006;2024-01-11T09:22:22;-0.70;99.90
9466;DHT22;4771;48.726;9.006;2024-01-11T09:24:48;-0.70;99.90
9466;DHT22;4771;48.726;9.006;2024-01-11T09:27:15;-0.70;99.90
9466;DHT22;4771;48.726;9.006;2024-01-11T09:29:43;-0.60;99.90
9466;DHT22;4771;48.726;9.006;2024-01-11T09:32:09;-0.60;99.90
9466;DHT22;4771;48.726;9.006;2024-01-11T09:34:38;-0.60;99.90
9466;DHT22;4771;48.726;9.006;2024-01-11T09:37:05;-0.50;99.90
9466;DHT22;4771;48.726;9.006;2024-01-11T09:39:31;-0.50;99.90
9466;DHT22;4771;48.726;9.006;2024-01-11T09:42:01;-0.40;99.90
9466;DHT22;4771;48.726;9.006;2024-01-11T09:44:30;-0.40;99.90
9466;DHT22;4771;48.726;9.006;2024-01-11T09:46:57;-0.30;99.90
9466;DHT22;4771;48.726;9.006;2024-01-11T09:49:25;-0.20;99.90
9466;DHT22;4771;48.726;9.006;2024-01-11T09:51:53;0.00;99.90
9466;DHT22;4771;48.726;9.006;2024-01-11T09:54:23;0.10;99.90
9466;DHT22;4771;48.726;9.006;2024-01-11T09:56:53;0.00;99.90
9466;DHT22;4771;48.726;9.006;2024-01-11T09:59:21;0.30;99.90
9466;DHT22;4771;48.726;9.006;2024-01-11T10:01:49;0.40;99.90
9466;DHT22;4771;48.726;9.006;2024-01-11T10:04:16;0.50;99.90
9466;DHT22;4771;48.726;9.006;2024-01-11T10:06:43;0.60;99.90
9466;DHT22;4771;48.726;9.006;2024-01-11T10:09:12;0.70;99.90
9466;DHT22;4771;48.726;9.006;2024-01-11T10:11:39;0.80;99.90
9466;DHT22;4771;48.726;9.006;2024-01-11T10:14:06;0.80;99.90
9466;DHT22;4771;48.726;9.006;2024-01-11T10:16:33;0.80;99.90
9466;DHT22;4771;48.726;9.006;2024-01-11T10:19:01;0.80;99.90
9466;DHT22;4771;48.726;9.006;2024-01-11T10:21:29;0.90;99.90
9466;DHT22;4771;48.726;9.006;2024-01-11T10:23:57;1.00;99.90
9466;DHT22;4771;48.726;9.006;2024-01-11T10:26:26;1.00;99.90
9466;DHT22;4771;48.726;9.006;2024-01-11T10:28:53;1.10;99.90
9466;DHT22;4771;48.726;9.006;2024-01-11T10:31:22;1.20;99.90
9466;DHT22;4771;48.726;9.006;2024-01-11T10:33:53;1.30;99.90
9466;DHT22;4771;48.726;9.006;2024-01-11T10:36:20;1.40;99.90
9466;DHT22;4771;48.726;9.006;2024-01-11T10:38:47;1.50;99.90
9466;DHT22;4771;48.726;9.006;2024-01-11T10:41:18;1.50;99.90
9466;DHT22;4771;48.726;9.006;2024-01-11T10:43:48;1.60;99.90
9466;DHT22;4771;48.726;9.006;2024-01-11T10:46:15;1.60;99.90
9466;DHT22;4771;48.726;9.006;2024-01-11T10:48:44;1.70;99.90
9466;DHT22;4771;48.726;9.006;2024-01-11T10:51:16;2.00;99.90
9466;DHT22;4771;48.726;9.006;2024-01-11T10:53:47;1.80;99.90
9466;DHT22;4771;48.726;9.006;2024-01-11T10:56:16;1.80;99.90
9466;DHT22;4771;48.726;9.006;2024-01-11T10:58:44;1.90;99.90
9466;DHT22;4771;48.726;9.006;2024-01-11T11:01:13;2.00;99.90
9466;DHT22;4771;48.726;9.006;2024-01-11T11:03:41;2.00;99.90
9466;DHT22;4771;48.726;9.006;2024-01-11T11:06:11;2.10;99.90
9466;DHT22;4771;48.726;9.006;2024-01-11T11:08:38;2.20;99.90
9466;DHT22;4771;48.726;9.006;2024-01-11T11:11:06;2.20;99.90
9466;DHT22;4771;48.726;9.006;2024-01-11T11:13:34;2.40;99.90
9466;DHT22;4771;48.726;9.006;2024-01-11T11:16:01;2.50;99.90
9466;DHT22;4771;48.726;9.006;2024-01-11T11:18:31;2.60;99.90
9466;DHT22;4771;48.726;9.006;2024-01-11T11:21:00;2.70;99.90
9466;DHT22;4771;48.726;9.006;2024-01-11T11:23:27;2.90;99.90
9466;DHT22;4771;48.726;9.006;2024-01-11T11:25:55;2.90;99.90
9466;DHT22;4771;48.726;9.006;2024-01-11T11:28:22;3.00;99.90
9466;DHT22;4771;48.726;9.006;2024-01-11T11:30:51;3.20;99.90
9466;DHT22;4771;48.726;9.006;2024-01-11T11:33:20;3.20;99.90
9466;DHT22;4771;48.726;9.006;2024-01-11T11:35:52;3.30;99.90
9466;DHT22;4771;48.726;9.006;2024-01-11T11:38:21;3.50;99.90
9466;DHT22;4771;48.726;9.006;2024-01-11T11:40:48;3.50;99.90
9466;DHT22;4771;48.726;9.006;2024-01-11T11:43:18;3.60;99.90
9466;DHT22;4771;48.726;9.006;2024-01-11T11:45:47;3.70;99.50
9466;DHT22;4771;48.726;9.006;2024-01-11T11:48:49;3.70;99.00
9466;DHT22;4771;48.726;9.006;2024-01-11T11:51:19;3.80;99.10
9466;DHT22;4771;48.726;9.006;2024-01-11T11:53:47;3.80;98.00
9466;DHT22;4771;48.726;9.006;2024-01-11T11:56:16;3.90;97.50
9466;DHT22;4771;48.726;9.006;2024-01-11T11:58:44;3.90;97.00
9466;DHT22;4771;48.726;9.006;2024-01-11T12:01:13;3.90;97.00
9466;DHT22;4771;48.726;9.006;2024-01-11T12:03:41;4.00;96.30
9466;DHT22;4771;48.726;9.006;2024-01-11T12:06:12;4.00;97.00
9466;DHT22;4771;48.726;9.006;2024-01-11T12:08:42;4.10;96.90
9466;DHT22;4771;48.726;9.006;2024-01-11T12:11:09;4.20;96.40
9466;DHT22;4771;48.726;9.006;2024-01-11T12:13:40;4.30;95.60
9466;DHT22;4771;48.726;9.006;2024-01-11T12:16:07;4.30;95.40
9466;DHT22;4771;48.726;9.006;2024-01-11T12:18:34;4.40;94.50
9466;DHT22;4771;48.726;9.006;2024-01-11T12:21:00;4.40;94.90
9466;DHT22;4771;48.726;9.006;2024-01-11T12:23:27;4.50;95.10
9466;DHT22;4771;48.726;9.006;2024-01-11T12:25:58;4.60;94.20
9466;DHT22;4771;48.726;9.006;2024-01-11T12:28:25;4.70;94.70
9466;DHT22;4771;48.726;9.006;2024-01-11T12:30:52;4.80;94.30
9466;DHT22;4771;48.726;9.006;2024-01-11T12:33:18;4.90;93.00
9466;DHT22;4771;48.726;9.006;2024-01-11T12:35:46;4.90;92.60
9466;DHT22;4771;48.726;9.006;2024-01-11T12:38:13;4.80;92.10
9466;DHT22;4771;48.726;9.006;2024-01-11T12:40:41;4.80;92.10
9466;DHT22;4771;48.726;9.006;2024-01-11T12:43:11;4.80;92.20
9466;DHT22;4771;48.726;9.006;2024-01-11T12:45:38;4.80;91.70
9466;DHT22;4771;48.726;9.006;2024-01-11T12:48:07;4.90;91.90
9466;DHT22;4771;48.726;9.006;2024-01-11T12:50:35;4.90;90.60
9466;DHT22;4771;48.726;9.006;2024-01-11T12:53:06;4.90;90.90
9466;DHT22;4771;48.726;9.006;2024-01-11T12:55:34;4.80;88.90
9466;DHT22;4771;48.726;9.006;2024-01-11T12:58:05;4.80;88.40
9466;DHT22;4771;48.726;9.006;2024-01-11T13:00:34;4.70;87.50
9466;DHT22;4771;48.726;9.006;2024-01-11T13:03:01;4.70;89.30
9466;DHT22;4771;48.726;9.006;2024-01-11T13:05:28;4.70;88.70
9466;DHT22;4771;48.726;9.006;2024-01-11T13:07:55;4.70;88.80
9466;DHT22;4771;48.726;9.006;2024-01-11T13:10:22;4.70;87.60
9466;DHT22;4771;48.726;9.006;2024-01-11T13:12:53;4.60;86.00
9466;DHT22;4771;48.726;9.006;2024-01-11T13:15:20;4.40;85.20
9466;DHT22;4771;48.726;9.006;2024-01-11T13:17:50;4.30;85.60
9466;DHT22;4771;48.726;9.006;2024-01-11T13:20:17;4.20;86.50
9466;DHT22;4771;48.726;9.006;2024-01-11T13:22:44;4.20;87.30
9466;DHT22;4771;48.726;9.006;2024-01-11T13:25:11;4.10;86.10
9466;DHT22;4771;48.726;9.006;2024-01-11T13:27:38;4.00;87.40
9466;DHT22;4771;48.726;9.006;2024-01-11T13:30:06;4.00;88.70
9466;DHT22;4771;48.726;9.006;2024-01-11T13:32:33;4.00;88.80
9466;DHT22;4771;48.726;9.006;2024-01-11T13:35:02;4.10;90.20
9466;DHT22;4771;48.726;9.006;2024-01-11T13:37:29;4.20;91.20
9466;DHT22;4771;48.726;9.006;2024-01-11T13:39:56;4.10;91.00
9466;DHT22;4771;48.726;9.006;2024-01-11T13:42:23;4.10;91.10
9466;DHT22;4771;48.726;9.006;2024-01-11T13:44:50;4.10;91.10
9466;DHT22;4771;48.726;9.006;2024-01-11T13:47:16;4.00;91.30
9466;DHT22;4771;48.726;9.006;2024-01-11T13:49:43;4.10;91.60
9466;DHT22;4771;48.726;9.006;2024-01-11T13:52:12;4.10;91.80
9466;DHT22;4771;48.726;9.006;2024-01-11T13:54:39;4.10;92.00
9466;DHT22;4771;48.726;9.006;2024-01-11T13:57:06;4.10;91.60
9466;DHT22;4771;48.726;9.006;2024-01-11T13:59:33;4.00;91.90
9466;DHT22;4771;48.726;9.006;2024-01-11T14:02:00;4.10;92.20
9466;DHT22;4771;48.726;9.006;2024-01-11T14:04:27;4.10;92.00
9466;DHT22;4771;48.726;9.006;2024-01-11T14:06:54;4.00;92.00
9466;DHT22;4771;48.726;9.006;2024-01-11T14:09:22;4.00;92.20
9466;DHT22;4771;48.726;9.006;2024-01-11T14:11:49;4.00;91.40
9466;DHT22;4771;48.726;9.006;2024-01-11T14:14:16;3.80;91.60
9466;DHT22;4771;48.726;9.006;2024-01-11T14:16:44;3.80;92.10
9466;DHT22;4771;48.726;9.006;2024-01-11T14:19:11;3.70;91.90
9466;DHT22;4771;48.726;9.006;2024-01-11T14:21:38;3.70;92.40
9466;DHT22;4771;48.726;9.006;2024-01-11T14:24:05;3.70;92.50
9466;DHT22;4771;48.726;9.006;2024-01-11T14:26:34;3.60;92.10
9466;DHT22;4771;48.726;9.006;2024-01-11T14:29:01;3.90;92.10
9466;DHT22;4771;48.726;9.006;2024-01-11T14:31:29;3.50;92.40
9466;DHT22;4771;48.726;9.006;2024-01-11T14:33:55;3.40;92.80
9466;DHT22;4771;48.726;9.006;2024-01-11T14:36:22;3.30;92.10
9466;DHT22;4771;48.726;9.006;2024-01-11T14:38:49;3.20;92.40
9466;DHT22;4771;48.726;9.006;2024-01-11T14:41:16;3.20;92.20
9466;DHT22;4771;48.726;9.006;2024-01-11T14:43:45;3.10;92.70
9466;DHT22;4771;48.726;9.006;2024-01-11T14:46:12;3.10;92.80
9466;DHT22;4771;48.726;9.006;2024-01-11T14:48:39;3.00;93.10
9466;DHT22;4771;48.726;9.006;2024-01-11T14:51:07;2.90;93.30
9466;DHT22;4771;48.726;9.006;2024-01-11T14:53:34;2.90;93.60
9466;DHT22;4771;48.726;9.006;2024-01-11T14:56:01;2.90;93.60
9466;DHT22;4771;48.726;9.006;2024-01-11T14:58:28;2.80;93.20
9466;DHT22;4771;48.726;9.006;2024-01-11T15:00:56;2.80;93.90
9466;DHT22;4771;48.726;9.006;2024-01-11T15:03:23;2.70;93.70
9466;DHT22;4771;48.726;9.006;2024-01-11T15:05:52;2.70;94.00
9466;DHT22;4771;48.726;9.006;2024-01-11T15:08:19;2.70;94.20
9466;DHT22;4771;48.726;9.006;2024-01-11T15:10:46;2.70;94.20
9466;DHT22;4771;48.726;9.006;2024-01-11T15:13:13;2.60;94.10
9466;DHT22;4771;48.726;9.006;2024-01-11T15:15:40;2.60;94.20
9466;DHT22;4771;48.726;9.006;2024-01-11T15:18:08;2.50;94.40
9466;DHT22;4771;48.726;9.006;2024-01-11T15:20:36;2.40;94.40
9466;DHT22;4771;48.726;9.006;2024-01-11T15:23:03;2.30;94.70
9466;DHT22;4771;48.726;9.006;2024-01-11T15:25:30;2.30;94.70
9466;DHT22;4771;48.726;9.006;2024-01-11T15:27:57;2.30;95.30
9466;DHT22;4771;48.726;9.006;2024-01-11T15:30:24;2.20;95.30
9466;DHT22;4771;48.726;9.006;2024-01-11T15:32:52;2.10;95.70
9466;DHT22;4771;48.726;9.006;2024-01-11T15:35:20;2.20;95.80
9466;DHT22;4771;48.726;9.006;2024-01-11T15:37:47;2.00;96.00
9466;DHT22;4771;48.726;9.006;2024-01-11T15:40:15;2.00;96.30
9466;DHT22;4771;48.726;9.006;2024-01-11T15:42:42;1.90;96.10
9466;DHT22;4771;48.726;9.006;2024-01-11T15:45:09;1.90;96.10
9466;DHT22;4771;48.726;9.006;2024-01-11T15:47:36;1.90;96.30
9466;DHT22;4771;48.726;9.006;2024-01-11T15:50:04;1.80;96.30
9466;DHT22;4771;48.726;9.006;2024-01-11T15:52:36;1.70;96.50
9466;DHT22;4771;48.726;9.006;2024-01-11T15:55:03;1.70;96.70
9466;DHT22;4771;48.726;9.006;2024-01-11T15:57:31;1.70;97.00
9466;DHT22;4771;48.726;9.006;2024-01-11T15:59:58;1.60;97.10
9466;DHT22;4771;48.726;9.006;2024-01-11T16:02:25;1.50;97.20
9466;DHT22;4771;48.726;9.006;2024-01-11T16:04:52;1.50;97.40
9466;DHT22;4771;48.726;9.006;2024-01-11T16:07:19;1.50;97.50
9466;DHT22;4771;48.726;9.006;2024-01-11T16:09:47;1.40;97.60
9466;DHT22;4771;48.726;9.006;2024-01-11T16:12:15;1.40;97.90